Time;durP1;ratioP1;P1;durP2;ratioP2;P2;SDS_P1;SDS_P2;PMS_P1;PMS_P2;Temp;Humidity;BMP_temperature;BMP_pressure;BME280_temperature;BME280_humidity;BME280_pressure;Samples;Min_cycle;Max_cycle;Signal;HPM_P1;HPM_P2
2023/06/07 00:01:28;;;;;;;9.32;3.75;;;;;;;15.50;nan;100573.75;5057691;28;20091;-71
2023/06/07 00:03:53;;;;;;;7.60;4.20;;;;;;;15.57;nan;100580.72;5056949;28;20043;-70
2023/06/07 00:06:19;;;;;;;5.72;3.40;;;;;;;15.62;nan;100583.41;5055847;28;20463;-71
2023/06/07 00:08:44;;;;;;;9.60;3.92;;;;;;;15.62;nan;100586.84;5053814;28;20049;-70
2023/06/07 00:11:10;;;;;;;13.88;4.00;;;;;;;15.63;nan;100579.69;5056445;28;20119;-71
2023/06/07 00:13:35;;;;;;;14.43;4.13;;;;;;;15.67;nan;100586.09;5055362;28;20036;-71
2023/06/07 00:16:01;;;;;;;7.88;4.00;;;;;;;15.68;nan;100579.72;5058330;28;20471;-71
2023/06/07 00:18:28;;;;;;;10.70;3.97;;;;;;;15.65;nan;100572.25;5058114;28;20044;-71
2023/06/07 00:20:53;;;;;;;8.32;4.15;;;;;;;15.66;nan;100579.19;5038291;28;20024;-70
2023/06/07 00:23:20;;;;;;;7.85;3.60;;;;;;;15.74;nan;100574.22;5055790;28;20077;-71
2023/06/07 00:25:46;;;;;;;14.95;4.35;;;;;;;15.62;nan;100562.97;5044707;28;20025;-71
2023/06/07 00:28:12;;;;;;;6.65;3.92;;;;;;;15.70;nan;100575.78;5055708;28;20386;-71
2023/06/07 00:30:37;;;;;;;14.00;4.25;;;;;;;15.70;nan;100575.78;5056300;28;20482;-70
2023/06/07 00:33:03;;;;;;;8.05;4.03;;;;;;;15.73;nan;100574.50;5059303;28;20031;-70
2023/06/07 00:35:28;;;;;;;8.68;4.82;;;;;;;15.76;nan;100570.53;5056517;28;20029;-70
2023/06/07 00:37:54;;;;;;;7.57;3.88;;;;;;;15.74;nan;100565.47;5055708;28;20029;-71
2023/06/07 00:40:19;;;;;;;12.02;4.28;;;;;;;15.81;nan;100573.22;5057799;28;20043;-70
2023/06/07 00:42:44;;;;;;;7.28;4.15;;;;;;;15.86;nan;100586.53;5058337;28;20020;-70
2023/06/07 00:45:10;;;;;;;10.18;4.13;;;;;;;15.85;nan;100575.09;5056478;28;20081;-70
2023/06/07 00:47:37;;;;;;;13.20;4.18;;;;;;;15.89;nan;100565.56;5053864;28;20119;-70
2023/06/07 00:50:04;;;;;;;9.98;4.57;;;;;;;15.88;nan;100563.97;5058139;28;20025;-71
2023/06/07 00:52:31;;;;;;;7.38;3.97;;;;;;;15.89;nan;100575.38;5056594;28;20028;-70
2023/06/07 00:54:58;;;;;;;12.63;3.95;;;;;;;15.92;nan;100565.06;5055736;28;20093;-70
2023/06/07 00:57:23;;;;;;;7.45;4.00;;;;;;;15.91;nan;100557.34;5057766;28;20045;-70
2023/06/07 00:59:49;;;;;;;10.48;4.18;;;;;;;15.87;nan;100548.28;5056334;28;20548;-71
2023/06/07 01:02:14;;;;;;;13.88;4.30;;;;;;;15.90;nan;100567.16;5055652;28;20061;-71
2023/06/07 01:04:42;;;;;;;10.77;4.13;;;;;;;15.89;nan;100544.31;5058395;28;20024;-71
2023/06/07 01:07:07;;;;;;;14.07;4.20;;;;;;;15.97;nan;100561.63;5058527;28;20028;-70
2023/06/07 01:09:34;;;;;;;10.40;4.25;;;;;;;16.01;nan;100551.28;5056042;28;20070;-71
2023/06/07 01:12:01;;;;;;;11.48;4.20;;;;;;;15.99;nan;100545.44;5056765;28;20065;-71
2023/06/07 01:14:27;;;;;;;11.95;4.20;;;;;;;16.01;nan;100551.28;5053151;28;20096;-70
2023/06/07 01:16:53;;;;;;;12.88;4.65;;;;;;;15.99;nan;100540.13;5058156;28;20120;-69
2023/06/07 01:19:24;;;;;;;14.70;4.18;;;;;;;15.98;nan;100536.66;5056321;28;20048;-70
2023/06/07 01:21:51;;;;;;;10.93;4.40;;;;;;;15.93;nan;100526.03;5058646;28;20086;-70
2023/06/07 01:24:18;;;;;;;12.20;4.80;;;;;;;15.96;nan;100538.78;5055562;28;20352;-70
2023/06/07 01:26:45;;;;;;;7.05;4.10;;;;;;;15.85;nan;100522.00;5056604;28;20024;-71
2023/06/07 01:29:12;;;;;;;14.00;4.47;;;;;;;15.88;nan;100516.16;5061288;28;20103;-71
2023/06/07 01:31:39;;;;;;;11.75;5.15;;;;;;;15.73;nan;100492.19;5059584;28;20104;-71
2023/06/07 01:34:07;;;;;;;11.48;4.30;;;;;;;15.85;nan;100511.38;5049023;28;20022;-70
2023/06/07 01:36:34;;;;;;;7.05;4.13;;;;;;;16.02;nan;100531.63;5055508;28;20510;-70
2023/06/07 01:39:02;;;;;;;13.02;4.20;;;;;;;16.01;nan;100536.16;5061883;28;20032;-71
2023/06/07 01:41:29;;;;;;;12.77;4.40;;;;;;;15.96;nan;100520.19;5057517;28;20031;-70
2023/06/07 01:43:57;;;;;;;7.75;4.40;;;;;;;16.01;nan;100527.38;5058538;28;20038;-71
2023/06/07 01:46:23;;;;;;;10.50;4.50;;;;;;;16.04;nan;100524.19;5049501;28;21485;-71
2023/06/07 01:48:48;;;;;;;6.72;4.28;;;;;;;15.94;nan;100520.44;5060330;28;20028;-70
2023/06/07 01:51:13;;;;;;;9.25;4.25;;;;;;;15.98;nan;100519.94;5058983;28;20025;-70
2023/06/07 01:53:39;;;;;;;7.75;4.07;;;;;;;15.90;nan;100510.59;5061496;28;20032;-71
2023/06/07 01:56:16;;;;;;;7.20;3.88;;;;;;;15.98;nan;100531.34;5057323;28;20112;-71
2023/06/07 01:59:14;;;;;;;10.10;4.30;;;;;;;15.93;nan;100529.47;5046820;28;20052;-70
2023/06/07 02:01:55;;;;;;;11.10;4.07;;;;;;;15.94;nan;100525.75;5056092;28;20029;-70
2023/06/07 02:04:22;;;;;;;12.77;4.32;;;;;;;16.01;nan;100535.34;5058423;28;20653;-71
2023/06/07 02:06:51;;;;;;;8.52;4.10;;;;;;;16.01;nan;100540.66;5058617;28;20059;-70
2023/06/07 02:09:19;;;;;;;10.15;4.68;;;;;;;15.98;nan;100525.25;5060485;28;20028;-71
2023/06/07 02:11:46;;;;;;;10.02;4.35;;;;;;;15.58;nan;100478.78;5059507;28;20044;-71
2023/06/07 02:14:12;;;;;;;9.63;4.38;;;;;;;15.92;nan;100533.19;5059719;28;20029;-70
2023/06/07 02:16:37;;;;;;;11.05;4.50;;;;;;;15.93;nan;100533.97;5060174;28;20074;-71
2023/06/07 02:19:06;;;;;;;14.25;4.32;;;;;;;15.83;nan;100518.78;5032954;28;20032;-70
2023/06/07 02:21:38;;;;;;;9.57;4.68;;;;;;;15.86;nan;100517.47;5058802;28;20445;-70
2023/06/07 02:24:05;;;;;;;9.88;4.32;;;;;;;15.93;nan;100528.69;5061353;28;20025;-71
2023/06/07 02:26:32;;;;;;;13.30;4.50;;;;;;;15.82;nan;100527.81;5048961;28;20028;-71
2023/06/07 02:28:58;;;;;;;7.93;4.70;;;;;;;15.77;nan;100529.63;5059098;28;20028;-70
2023/06/07 02:31:24;;;;;;;12.57;5.18;;;;;;;15.79;nan;100538.94;5059377;28;20082;-71
2023/06/07 02:33:50;;;;;;;13.90;5.07;;;;;;;15.76;nan;100543.97;5049218;28;20074;-71
2023/06/07 02:36:17;;;;;;;12.93;5.00;;;;;;;15.87;nan;100553.59;5059072;28;20025;-70
2023/06/07 02:38:43;;;;;;;12.02;4.80;;;;;;;15.85;nan;100539.75;5041819;28;20885;-70
2023/06/07 02:41:08;;;;;;;12.70;4.93;;;;;;;15.87;nan;100535.78;5057368;28;20033;-70
2023/06/07 02:43:34;;;;;;;12.27;5.05;;;;;;;15.92;nan;100543.81;5060081;28;20021;-71
2023/06/07 02:45:59;;;;;;;13.60;5.07;;;;;;;15.86;nan;100528.91;5059459;28;20352;-70
2023/06/07 02:48:24;;;;;;;9.75;5.25;;;;;;;15.92;nan;100543.81;5058440;28;20071;-70
2023/06/07 02:50:50;;;;;;;10.73;4.78;;;;;;;15.91;nan;100550.16;5055295;28;20049;-70
2023/06/07 02:53:15;;;;;;;11.50;5.03;;;;;;;15.83;nan;100528.63;5057547;28;21477;-71
2023/06/07 02:55:41;;;;;;;8.18;5.05;;;;;;;15.94;nan;100547.00;5056343;28;20111;-70
2023/06/07 02:58:07;;;;;;;11.02;5.05;;;;;;;15.91;nan;100552.03;5059235;28;20036;-70
2023/06/07 03:00:32;;;;;;;9.52;5.38;;;;;;;15.93;nan;100550.72;5059042;28;20044;-70
2023/06/07 03:02:58;;;;;;;11.52;5.20;;;;;;;15.88;nan;100539.28;5058726;28;20021;-71
2023/06/07 03:05:26;;;;;;;12.20;5.63;;;;;;;15.88;nan;100550.69;5058849;28;20042;-70
2023/06/07 03:07:52;;;;;;;12.00;5.15;;;;;;;15.89;nan;100552.28;5037690;28;20032;-70
2023/06/07 03:10:18;;;;;;;10.25;5.55;;;;;;;15.91;nan;100552.81;5057515;28;20036;-70
2023/06/07 03:12:43;;;;;;;17.13;5.60;;;;;;;16.00;nan;100560.31;5055315;28;20055;-70
2023/06/07 03:15:09;;;;;;;10.55;5.50;;;;;;;15.95;nan;100553.91;5058554;28;20078;-71
2023/06/07 03:17:35;;;;;;;9.02;4.82;;;;;;;16.00;nan;100557.66;5054801;28;20029;-70
2023/06/07 03:20:02;;;;;;;14.90;6.15;;;;;;;16.02;nan;100564.31;5059048;28;20025;-70
2023/06/07 03:22:27;;;;;;;13.63;5.53;;;;;;;16.04;nan;100561.38;5060609;28;20108;-71
2023/06/07 03:24:54;;;;;;;9.95;5.10;;;;;;;16.03;nan;100557.16;5058372;28;20103;-71
2023/06/07 03:27:23;;;;;;;9.57;5.45;;;;;;;16.05;nan;100558.50;5057057;28;20021;-70
2023/06/07 03:29:49;;;;;;;10.00;5.10;;;;;;;15.97;nan;100558.16;5056571;28;20614;-71
2023/06/07 03:32:15;;;;;;;10.63;5.25;;;;;;;16.00;nan;100565.63;5058680;28;20135;-71
2023/06/07 03:34:41;;;;;;;9.80;5.43;;;;;;;15.98;nan;100562.44;5055125;28;20025;-70
2023/06/07 03:37:07;;;;;;;11.15;5.93;;;;;;;15.86;nan;100558.09;5056365;28;20107;-70
2023/06/07 03:39:32;;;;;;;7.32;5.07;;;;;;;15.89;nan;100564.75;5057636;28;20897;-72
2023/06/07 03:41:59;;;;;;;11.25;5.38;;;;;;;15.90;nan;100574.34;5057639;28;20594;-73
2023/06/07 03:44:24;;;;;;;9.70;5.10;;;;;;;15.86;nan;100571.38;5047655;28;20429;-73
2023/06/07 03:46:50;;;;;;;11.60;5.72;;;;;;;16.00;nan;100577.06;5057679;28;20037;-73
2023/06/07 03:49:15;;;;;;;12.90;5.40;;;;;;;16.00;nan;100577.06;5055885;28;20593;-73
2023/06/07 03:51:43;;;;;;;7.80;4.55;;;;;;;15.95;nan;100579.69;5044947;28;20032;-72
2023/06/07 03:54:08;;;;;;;10.20;4.97;;;;;;;16.04;nan;100585.28;5060154;28;20612;-71
2023/06/07 03:56:33;;;;;;;14.00;5.22;;;;;;;16.06;nan;100580.53;5055933;28;20036;-72
2023/06/07 03:59:01;;;;;;;13.00;5.32;;;;;;;16.06;nan;100573.34;5054872;28;20037;-72
2023/06/07 04:01:27;;;;;;;12.63;5.13;;;;;;;16.14;nan;100588.84;5055252;28;20032;-73
2023/06/07 04:03:52;;;;;;;12.02;5.18;;;;;;;16.08;nan;100581.88;5055709;28;20043;-72
2023/06/07 04:06:20;;;;;;;7.85;5.45;;;;;;;16.03;nan;100568.56;5047030;28;20040;-72
2023/06/07 04:08:46;;;;;;;19.20;5.95;;;;;;;16.12;nan;100576.84;5056656;28;20029;-72
2023/06/07 04:11:12;;;;;;;10.48;5.95;;;;;;;16.22;nan;100590.19;5056428;28;20062;-72
2023/06/07 04:13:37;;;;;;;8.95;5.25;;;;;;;16.18;nan;100578.47;5057899;28;20033;-71
2023/06/07 04:16:03;;;;;;;13.95;5.20;;;;;;;16.23;nan;100586.47;5057662;28;20032;-72
2023/06/07 04:18:28;;;;;;;11.85;5.68;;;;;;;15.83;nan;100515.34;5055738;28;20387;-72
2023/06/07 04:20:53;;;;;;;10.35;5.40;;;;;;;16.31;nan;100591.31;5056676;28;20029;-72
2023/06/07 04:23:20;;;;;;;9.27;5.25;;;;;;;16.22;nan;100581.44;5057452;28;20031;-72
2023/06/07 04:25:46;;;;;;;13.15;6.07;;;;;;;16.31;nan;100593.16;5058404;28;20150;-72
2023/06/07 04:28:12;;;;;;;9.95;5.15;;;;;;;16.30;nan;100592.34;5039041;28;20032;-73
2023/06/07 04:30:40;;;;;;;13.75;5.78;;;;;;;16.22;nan;100578.78;5045711;28;20048;-73
2023/06/07 04:33:12;;;;;;;9.27;5.45;;;;;;;16.26;nan;100585.97;5056142;28;20492;-72
2023/06/07 04:35:41;;;;;;;9.63;5.07;;;;;;;16.20;nan;100579.03;5056676;28;20024;-72
2023/06/07 04:38:09;;;;;;;9.23;5.90;;;;;;;16.25;nan;100584.34;5058089;28;20028;-72
2023/06/07 04:40:40;;;;;;;12.25;5.45;;;;;;;16.07;nan;100555.59;5057700;28;20040;-72
2023/06/07 04:43:07;;;;;;;13.65;6.05;;;;;;;16.30;nan;100587.03;5058571;28;20468;-72
2023/06/07 04:45:33;;;;;;;16.38;6.78;;;;;;;16.28;nan;100580.38;5056862;28;20037;-72
2023/06/07 04:48:00;;;;;;;11.52;6.30;;;;;;;16.41;nan;100593.22;5054442;28;20115;-72
2023/06/07 04:50:28;;;;;;;11.57;5.85;;;;;;;16.41;nan;100593.22;5057270;28;20162;-72
2023/06/07 04:53:03;;;;;;;14.60;6.43;;;;;;;16.46;nan;100584.47;5057815;28;20493;-73
2023/06/07 04:55:34;;;;;;;10.70;5.82;;;;;;;16.51;nan;100592.47;5055130;28;20036;-73
2023/06/07 04:58:01;;;;;;;9.18;6.30;;;;;;;16.54;nan;100591.94;5053402;28;20059;-72
2023/06/07 05:00:26;;;;;;;10.73;5.72;;;;;;;16.51;nan;100581.81;5056747;28;20017;-72
2023/06/07 05:02:54;;;;;;;12.40;5.95;;;;;;;16.65;nan;100603.44;5058875;28;20024;-73
2023/06/07 05:05:20;;;;;;;9.83;5.70;;;;;;;16.68;nan;100602.91;5061193;28;20024;-72
2023/06/07 05:07:46;;;;;;;9.25;5.78;;;;;;;16.64;nan;100599.97;5050967;28;20035;-71
2023/06/07 05:10:12;;;;;;;9.75;5.47;;;;;;;16.67;nan;100602.09;5059062;28;20106;-72
2023/06/07 05:12:37;;;;;;;11.73;5.70;;;;;;;16.65;nan;100596.25;5058637;28;20122;-73
2023/06/07 05:15:05;;;;;;;14.55;5.88;;;;;;;16.71;nan;100602.38;5057879;28;20032;-73
2023/06/07 05:17:30;;;;;;;12.60;5.60;;;;;;;16.73;nan;100605.56;5060197;28;20028;-73
2023/06/07 05:19:55;;;;;;;10.18;5.38;;;;;;;16.65;nan;100588.25;5058577;28;20032;-72
2023/06/07 05:22:21;;;;;;;13.77;5.97;;;;;;;16.79;nan;100605.38;5058400;28;20024;-73
2023/06/07 05:24:47;;;;;;;13.10;6.07;;;;;;;16.76;nan;100584.59;5059001;28;20027;-70
2023/06/07 05:27:12;;;;;;;11.07;6.47;;;;;;;16.80;nan;100601.63;5061928;28;20016;-70
2023/06/07 05:29:37;;;;;;;12.45;6.63;;;;;;;16.89;nan;100609.13;5057987;28;20558;-71
2023/06/07 05:32:03;;;;;;;8.63;6.07;;;;;;;16.93;nan;100605.69;5059627;28;20048;-69
2023/06/07 05:34:29;;;;;;;11.63;5.90;;;;;;;16.93;nan;100603.03;5043014;28;20474;-70
2023/06/07 05:36:55;;;;;;;11.13;6.20;;;;;;;17.01;nan;100618.44;5059222;28;20075;-70
2023/06/07 05:39:20;;;;;;;11.45;5.20;;;;;;;16.99;nan;100609.13;5060103;28;20104;-70
2023/06/07 05:41:46;;;;;;;11.55;5.93;;;;;;;17.05;nan;100623.25;5041835;28;20024;-70
2023/06/07 05:44:11;;;;;;;12.02;5.07;;;;;;;17.04;nan;100621.66;5058554;28;20029;-72
2023/06/07 05:46:37;;;;;;;11.07;5.10;;;;;;;17.09;nan;100625.13;5059399;28;20024;-72
2023/06/07 05:49:02;;;;;;;12.43;5.07;;;;;;;17.13;nan;100625.41;5060267;28;20635;-73
2023/06/07 05:51:28;;;;;;;7.32;4.60;;;;;;;17.12;nan;100615.81;5060769;28;20032;-72
2023/06/07 05:53:53;;;;;;;9.60;5.00;;;;;;;17.20;nan;100625.97;5045356;28;20032;-72
2023/06/07 05:56:21;;;;;;;10.32;5.10;;;;;;;17.21;nan;100636.34;5056782;28;20106;-72
2023/06/07 05:58:49;;;;;;;11.93;5.03;;;;;;;17.16;nan;100615.03;5059773;28;20048;-72
2023/06/07 06:01:14;;;;;;;9.75;5.20;;;;;;;;;;5058362;28;20020;-72
2023/06/07 06:03:39;;;;;;;14.50;5.23;;;;;;;;;;5059536;28;20040;-72
2023/06/07 06:06:17;;;;;;;8.60;5.20;;;;;;;;;;5058561;28;20394;-72
2023/06/07 06:08:43;;;;;;;9.32;4.95;;;;;;;;;;5057435;28;20053;-72
2023/06/07 06:11:10;;;;;;;12.02;5.15;;;;;;;;;;5043228;28;20028;-72
2023/06/07 06:22:50;;;;;;;16.98;6.22;;;;;;;;;;5055162;27;20622;-73
2023/06/07 06:25:16;;;;;;;12.37;4.57;;;;;;;;;;5070076;28;20127;-72
2023/06/07 06:27:42;;;;;;;9.10;4.87;;;;;;;17.29;nan;100595.09;5072028;28;20284;-72
2023/06/07 06:30:08;;;;;;;13.68;5.90;;;;;;;;;;5071315;28;20284;-73
2023/06/07 06:32:33;;;;;;;13.68;5.40;;;;;;;;;;5072177;28;20023;-71
2023/06/07 06:34:58;;;;;;;8.70;4.33;;;;;;;17.31;nan;100637.41;5074154;28;20025;-72
2023/06/07 06:37:24;;;;;;;14.88;5.75;;;;;;;;;;5050555;28;20535;-70
2023/06/07 06:39:51;;;;;;;8.63;5.03;;;;;;;;;;5055960;28;20038;-69
2023/06/07 06:42:16;;;;;;;6.35;4.60;;;;;;;;;;5067751;28;20120;-70
2023/06/07 06:44:42;;;;;;;7.88;4.75;;;;;;;;;;5071360;28;20795;-69
2023/06/07 06:47:07;;;;;;;13.02;4.93;;;;;;;;;;5068392;28;20024;-70
2023/06/07 06:49:32;;;;;;;8.75;4.85;;;;;;;;;;5071096;28;20085;-70
2023/06/07 06:51:58;;;;;;;8.97;4.47;;;;;;;;;;5072538;28;20039;-70
2023/06/07 06:54:23;;;;;;;13.23;4.43;;;;;;;;;;5070194;28;20029;-70
2023/06/07 06:56:48;;;;;;;9.00;4.40;;;;;;;;;;5067686;28;20125;-71
2023/06/07 06:59:13;;;;;;;8.00;4.57;;;;;;;;;;5073834;28;20037;-71
2023/06/07 07:01:45;;;;;;;8.00;4.43;;;;;;;;;;5074455;28;20289;-72
2023/06/07 07:04:11;;;;;;;8.45;4.60;;;;;;;;;;5069618;28;20032;-71
2023/06/07 07:06:36;;;;;;;11.70;4.68;;;;;;;;;;5068954;28;20078;-69
2023/06/07 07:09:02;;;;;;;7.53;4.57;;;;;;;;;;5071190;28;20686;-70
2023/06/07 07:11:28;;;;;;;10.00;5.03;;;;;;;17.62;nan;100584.97;5073900;28;20028;-70
2023/06/07 07:13:53;;;;;;;11.52;4.18;;;;;;;;;;5070859;28;20032;-70
2023/06/07 07:16:19;;;;;;;8.90;3.97;;;;;;;;;;5069429;28;20059;-70
2023/06/07 07:18:44;;;;;;;13.32;4.55;;;;;;;;;;5069372;28;20285;-70
2023/06/07 07:21:09;;;;;;;8.15;3.72;;;;;;;17.61;nan;100632.13;5073238;28;20075;-71
2023/06/07 07:23:35;;;;;;;11.93;4.57;;;;;;;;;;5073304;28;20073;-71
2023/06/07 07:26:00;;;;;;;10.25;4.63;;;;;;;;;;5070917;28;20052;-71
2023/06/07 07:28:25;;;;;;;9.63;4.50;;;;;;;;;;5073222;28;20028;-72
2023/06/07 07:30:50;;;;;;;6.43;3.63;;;;;;;;;;5071818;28;20067;-70
2023/06/07 07:33:16;;;;;;;9.83;4.63;;;;;;;;;;5059721;28;20277;-72
2023/06/07 07:35:41;;;;;;;13.53;5.00;;;;;;;18.23;nan;100645.44;5055503;28;20834;-70
2023/06/07 07:38:07;;;;;;;9.80;4.75;;;;;;;18.27;nan;100643.84;5055967;28;20078;-70
2023/06/07 07:40:32;;;;;;;9.48;5.00;;;;;;;18.39;nan;100648.84;5059344;28;20060;-71
2023/06/07 07:42:58;;;;;;;11.75;5.30;;;;;;;18.50;nan;100661.88;5058302;28;20530;-71
2023/06/07 07:45:23;;;;;;;17.05;5.85;;;;;;;18.59;nan;100650.66;5058543;28;20029;-71
2023/06/07 07:47:49;;;;;;;17.40;5.72;;;;;;;18.63;nan;100657.06;5055048;28;20025;-70
2023/06/07 07:50:16;;;;;;;13.43;5.25;;;;;;;18.63;nan;100654.41;5060858;28;20577;-70
2023/06/07 07:52:41;;;;;;;11.77;5.57;;;;;;;18.66;nan;100657.31;5060990;28;20613;-70
2023/06/07 07:55:07;;;;;;;11.15;6.00;;;;;;;18.69;nan;100647.97;5047834;28;20068;-70
2023/06/07 07:57:33;;;;;;;11.82;6.57;;;;;;;18.68;nan;100651.72;5063498;28;20694;-70
2023/06/07 07:59:58;;;;;;;13.38;5.45;;;;;;;18.77;nan;100658.09;5033208;28;20029;-70
2023/06/07 08:02:23;;;;;;;11.45;6.45;;;;;;;18.76;nan;100651.16;5044609;28;20028;-70
2023/06/07 08:04:49;;;;;;;8.02;5.65;;;;;;;18.79;nan;100639.94;5062664;28;20120;-69
2023/06/07 08:07:15;;;;;;;11.20;5.72;;;;;;;19.05;nan;100661.97;5042407;28;20696;-69
2023/06/07 08:09:41;;;;;;;11.05;5.63;;;;;;;19.18;nan;100660.56;5057819;28;20041;-70
2023/06/07 08:12:07;;;;;;;12.40;4.80;;;;;;;19.23;nan;100657.09;5056053;28;20485;-73
2023/06/07 08:14:32;;;;;;;7.13;4.00;;;;;;;19.31;nan;100661.81;5057205;28;20077;-71
2023/06/07 08:16:58;;;;;;;10.57;4.20;;;;;;;19.33;nan;100655.13;5056484;28;20029;-71
2023/06/07 08:19:23;;;;;;;7.93;4.07;;;;;;;19.32;nan;100639.38;5058548;28;20098;-72
2023/06/07 08:21:49;;;;;;;10.90;3.70;;;;;;;19.51;nan;100656.38;5055835;28;20526;-71
2023/06/07 08:24:14;;;;;;;7.13;3.75;;;;;;;19.51;nan;100639.50;5058476;28;20123;-71
2023/06/07 08:26:40;;;;;;;8.35;4.15;;;;;;;19.63;nan;100653.31;5057351;28;20040;-71
2023/06/07 08:29:05;;;;;;;12.23;4.18;;;;;;;19.68;nan;100647.97;5058039;28;20443;-70
2023/06/07 08:31:31;;;;;;;5.18;3.63;;;;;;;19.70;nan;100634.31;5057579;28;20017;-72
2023/06/07 08:33:57;;;;;;;8.50;3.42;;;;;;;19.91;nan;100656.34;5057765;28;20802;-71
2023/06/07 08:36:22;;;;;;;7.93;3.03;;;;;;;19.91;nan;100651.00;5058671;28;20029;-70
2023/06/07 08:38:48;;;;;;;4.43;3.30;;;;;;;20.02;nan;100657.06;5057220;28;20033;-69
2023/06/07 08:41:13;;;;;;;10.23;3.30;;;;;;;19.98;nan;100646.13;5055509;28;20470;-69
2023/06/07 08:43:40;;;;;;;8.88;4.00;;;;;;;20.14;nan;100665.50;5042167;28;20048;-71
2023/06/07 08:46:06;;;;;;;7.25;3.75;;;;;;;20.22;nan;100662.19;5054181;28;20032;-71
2023/06/07 08:48:33;;;;;;;7.22;3.85;;;;;;;20.18;nan;100639.75;5057980;28;20529;-71
2023/06/07 08:51:01;;;;;;;8.98;3.40;;;;;;;20.43;nan;100657.44;5056665;28;20032;-72
2023/06/07 08:53:32;;;;;;;6.40;3.80;;;;;;;20.53;nan;100651.97;5054171;28;20091;-72
2023/06/07 08:55:58;;;;;;;6.72;3.65;;;;;;;20.59;nan;100655.38;5053398;28;20111;-72
2023/06/07 08:58:25;;;;;;;4.75;3.58;;;;;;;20.70;nan;100658.75;5058169;28;20376;-72
2023/06/07 09:00:53;;;;;;;6.85;3.15;;;;;;;20.68;nan;100644.88;5056754;28;20021;-72
2023/06/07 09:03:18;;;;;;;7.15;3.42;;;;;;;20.81;nan;100646.84;5037449;28;20064;-72
2023/06/07 09:05:44;;;;;;;6.78;3.60;;;;;;;20.83;nan;100644.69;5054858;28;20053;-72
2023/06/07 09:08:09;;;;;;;7.53;3.60;;;;;;;21.00;nan;100644.19;5037651;28;20039;-72
2023/06/07 09:10:35;;;;;;;6.05;3.40;;;;;;;21.11;nan;100655.56;5056041;28;20032;-70
2023/06/07 09:13:00;;;;;;;11.60;3.22;;;;;;;21.13;nan;100646.16;5057728;28;20035;-72
2023/06/07 09:15:27;;;;;;;7.35;3.13;;;;;;;21.23;nan;100642.53;5057453;28;20028;-70
2023/06/07 09:17:54;;;;;;;4.72;3.30;;;;;;;21.35;nan;100650.13;5040343;28;20059;-71
2023/06/07 09:20:22;;;;;;;4.93;2.88;;;;;;;21.39;nan;100643.09;5055107;28;20130;-71
2023/06/07 09:23:02;;;;;;;4.15;3.13;;;;;;;21.51;nan;100650.72;5054582;28;20131;-73
2023/06/07 09:25:29;;;;;;;4.88;2.88;;;;;;;21.56;nan;100648.75;5046385;28;20024;-71
2023/06/07 09:27:55;;;;;;;7.45;3.30;;;;;;;21.60;nan;100654.34;5045707;28;20123;-72
2023/06/07 09:30:20;;;;;;;6.22;3.10;;;;;;;21.55;nan;100641.00;5057039;28;20040;-72
2023/06/07 09:32:46;;;;;;;5.93;3.08;;;;;;;21.57;nan;100633.47;5054397;28;20507;-72
2023/06/07 09:35:14;;;;;;;4.50;2.97;;;;;;;21.68;nan;100650.97;5051477;28;20025;-74
2023/06/07 09:37:44;;;;;;;5.15;3.00;;;;;;;21.65;nan;100630.13;5051085;28;20040;-72
2023/06/07 09:40:11;;;;;;;5.82;2.92;;;;;;;21.70;nan;100640.75;5058068;28;20035;-71
2023/06/07 09:42:36;;;;;;;6.20;3.15;;;;;;;21.66;nan;100626.34;5051373;28;20395;-72
2023/06/07 09:45:11;;;;;;;8.68;3.13;;;;;;;21.85;nan;100634.34;5053464;28;20040;-72
2023/06/07 09:47:36;;;;;;;7.47;3.17;;;;;;;21.98;nan;100644.31;5053149;28;20021;-72
2023/06/07 09:50:06;;;;;;;7.07;3.20;;;;;;;22.04;nan;100634.28;5040475;28;20025;-72
2023/06/07 09:52:32;;;;;;;4.93;3.08;;;;;;;22.17;nan;100632.69;5052524;28;20017;-72
2023/06/07 09:54:57;;;;;;;10.57;3.22;;;;;;;22.23;nan;100628.88;5055086;28;20446;-71
2023/06/07 09:57:25;;;;;;;5.72;2.63;;;;;;;22.30;nan;100635.41;5052589;28;20028;-71
2023/06/07 10:00:14;;;;;;;4.45;2.50;;;;;;;22.42;nan;100626.09;5056518;28;20074;-72
2023/06/07 10:02:42;;;;;;;9.30;2.92;;;;;;;22.45;nan;100617.44;5056526;28;20039;-71
2023/06/07 10:05:08;;;;;;;5.55;2.90;;;;;;;22.50;nan;100628.84;5040413;28;20029;-72
2023/06/07 10:07:40;;;;;;;4.35;2.90;;;;;;;22.50;nan;100625.38;5053929;28;20025;-72
2023/06/07 10:10:09;;;;;;;5.60;2.80;;;;;;;22.47;nan;100618.72;5057535;28;20108;-70
2023/06/07 10:12:38;;;;;;;5.77;2.57;;;;;;;22.48;nan;100617.66;5057121;28;20102;-72
2023/06/07 10:15:07;;;;;;;5.10;2.65;;;;;;;22.57;nan;100633.03;5053834;28;20472;-72
2023/06/07 10:17:51;;;;;;;;;;;;;;;22.58;nan;100634.59;5059398;28;20020;-72
2023/06/07 10:20:38;;;;;;;5.57;3.25;;;;;;;22.59;nan;100633.53;5055740;28;19918;-72
2023/06/07 10:23:18;;;;;;;6.22;3.10;;;;;;;22.61;nan;100628.66;5054248;28;20122;-72
2023/06/07 10:25:52;;;;;;;7.35;3.28;;;;;;;22.56;nan;100624.19;5037894;28;20021;-70
2023/06/07 10:28:25;;;;;;;6.55;3.15;;;;;;;22.59;nan;100634.31;5040731;28;20048;-72
2023/06/07 10:31:03;;;;;;;3.67;2.90;;;;;;;22.50;nan;100606.59;5054324;28;20055;-74
2023/06/07 10:33:29;;;;;;;5.47;2.92;;;;;;;22.67;nan;100617.53;5053421;28;20090;-71
2023/06/07 10:35:55;;;;;;;6.45;2.85;;;;;;;22.82;nan;100623.63;5053197;28;20025;-70
2023/06/07 10:38:21;;;;;;;4.68;3.08;;;;;;;22.79;nan;100618.88;5051916;28;20510;-71
2023/06/07 10:40:47;;;;;;;6.30;3.17;;;;;;;22.78;nan;100614.63;5054703;28;20028;-71
2023/06/07 10:43:12;;;;;;;4.97;2.92;;;;;;;22.80;nan;100617.81;5055774;28;20487;-71
2023/06/07 10:45:37;;;;;;;4.32;2.80;;;;;;;22.83;nan;100612.59;5052250;28;20033;-71
2023/06/07 10:48:33;;;;;;;7.68;3.20;;;;;;;22.88;nan;100617.06;5025017;28;20032;-72
2023/06/07 10:50:59;;;;;;;6.05;2.80;;;;;;;22.87;nan;100610.91;5035893;28;20127;-72
2023/06/07 10:53:25;;;;;;;5.60;2.60;;;;;;;22.92;nan;100612.69;5053459;28;20590;-71
2023/06/07 10:55:50;;;;;;;3.95;2.78;;;;;;;22.72;nan;100585.19;5054623;28;20490;-72
2023/06/07 10:58:29;;;;;;;10.50;2.90;;;;;;;22.84;nan;100611.53;5055910;28;20784;-71
2023/06/07 11:00:55;;;;;;;6.32;2.92;;;;;;;22.84;nan;100610.72;5053220;28;20021;-72
2023/06/07 11:03:23;;;;;;;6.28;3.10;;;;;;;22.87;nan;100618.19;5038494;28;20368;-71
2023/06/07 11:05:52;;;;;;;9.02;2.85;;;;;;;22.87;nan;100615.50;5058612;28;20502;-72
2023/06/07 11:08:21;;;;;;;6.15;2.95;;;;;;;22.84;nan;100613.41;5055199;28;20044;-71
2023/06/07 11:10:47;;;;;;;7.13;3.05;;;;;;;22.90;nan;100612.19;5057929;28;20028;-71
2023/06/07 11:13:12;;;;;;;5.57;2.95;;;;;;;22.92;nan;100600.06;5058561;28;20486;-71
2023/06/07 11:15:38;;;;;;;6.18;3.22;;;;;;;23.02;nan;100603.66;5057355;28;20024;-72
2023/06/07 11:18:07;;;;;;;4.13;2.78;;;;;;;22.93;nan;100598.16;5058936;28;20090;-71
2023/06/07 11:20:39;;;;;;;7.55;2.92;;;;;;;23.06;nan;100602.75;5040187;28;20017;-72
2023/06/07 11:23:30;;;;;;;5.97;2.80;;;;;;;23.17;nan;100602.50;5054482;28;20090;-72
2023/06/07 11:26:05;;;;;;;5.05;2.85;;;;;;;23.23;nan;100596.69;5055025;28;20078;-72
2023/06/07 11:28:31;;;;;;;5.00;2.88;;;;;;;23.18;nan;100575.34;5058900;28;20029;-72
2023/06/07 11:30:58;;;;;;;10.85;3.30;;;;;;;23.27;nan;100586.13;5056424;28;20035;-71
2023/06/07 11:33:25;;;;;;;5.35;3.03;;;;;;;23.36;nan;100603.09;5042475;28;20033;-71
2023/06/07 11:35:51;;;;;;;13.23;3.10;;;;;;;23.39;nan;100591.75;5060190;28;20411;-71
2023/06/07 11:38:17;;;;;;;9.60;2.97;;;;;;;23.49;nan;100594.19;5047936;28;20040;-71
2023/06/07 11:40:44;;;;;;;6.40;3.00;;;;;;;23.51;nan;100578.56;5059476;28;20032;-72
2023/06/07 11:43:11;;;;;;;6.50;3.45;;;;;;;23.64;nan;100589.53;5057936;28;20021;-71
2023/06/07 11:45:40;;;;;;;4.65;2.90;;;;;;;23.69;nan;100586.72;5042130;28;20028;-71
2023/06/07 11:48:05;;;;;;;;;;;;;;;23.78;nan;100584.91;5057102;28;20051;-71
2023/06/07 11:50:31;;;;;;;3.92;3.00;;;;;;;23.83;nan;100576.69;5058181;28;20401;-67
2023/06/07 11:52:56;;;;;;;5.45;3.22;;;;;;;23.91;nan;100586.69;5042127;28;20038;-68
2023/06/07 11:55:22;;;;;;;7.43;3.35;;;;;;;23.93;nan;100578.31;5037519;28;20119;-68
2023/06/07 11:57:52;;;;;;;6.45;3.70;;;;;;;23.91;nan;100572.44;5055294;28;20111;-68
2023/06/07 12:00:23;;;;;;;5.97;2.90;;;;;;;23.94;nan;100567.25;5059031;28;20113;-67
2023/06/07 12:02:49;;;;;;;3.42;2.90;;;;;;;23.96;nan;100562.34;5060806;28;20017;-68